F6141 Weather Reports


time (UTC)temp
C
wind
direction
speed
KPH
gust
KPH
rain 1hr
cm
rain 24hr
cm
rain mn
cm
humidity
%
barometer
mb
20240304034519 4 251 3.2 6.4 0.00 0.00 0.00 80 1007.6
20240304033521 4 249 3.2 4.8 0.00 0.00 0.00 79 1007.6
20240304032524 4 200 4.8 8.0 0.00 0.00 0.00 78 1007.7
20240304031540 5 236 3.2 6.4 0.00 0.00 0.00 78 1007.5
20240304030536 5 264 4.8 8.0 0.00 0.00 0.00 78 1007.2
20240304025551 5 236 3.2 6.4 0.00 0.00 0.00 77 1007.1
20240304024515 5 130 6.4 8.0 0.00 0.00 0.00 76 1006.9
20240304023518 5 173 4.8 6.4 0.00 0.00 0.00 74 1006.8
20240304022520 5 264 6.4 9.7 0.00 0.00 0.00 74 1006.5
20240304021523 6 245 4.8 8.0 0.00 0.00 0.00 73 1005.9
20240304020525 6 265 8.0 12.9 0.00 0.00 0.00 72 1005.6
20240304015527 6 255 8.0 16.1 0.00 0.00 0.00 71 1005.1
20240304014530 7 296 9.7 20.9 0.00 0.00 0.00 71 1004.9
20240304013532 7 263 8.0 11.3 0.00 0.00 0.00 71 1004.8
20240304012517 7 254 11.3 17.7 0.00 0.00 0.00 73 1004.6
20240304011519 7 265 12.9 24.1 0.00 0.00 0.00 74 1003.7
20240304010522 8 226 12.9 19.3 0.00 0.00 0.00 74 1003.1
20240304005524 8 258 9.7 16.1 0.00 0.00 0.00 75 1002.8
20240304004527 8 274 11.3 16.1 0.00 0.00 0.00 75 1002.2
20240304003523 8 253 11.3 22.5 0.00 0.00 0.00 75 1001.9
20240304002520 8 250 11.3 17.7 0.00 0.00 0.00 75 1001.6
20240304001516 9 257 11.3 24.1 0.00 0.00 0.00 74 1000.7
20240304000518 10 289 11.3 17.7 0.00 0.00 0.00 73 1000.0
20240303235521 10 282 11.3 17.7 0.00 0.00 0.00 72 999.1
20240303234525 11 266 6.4 14.5 0.00 0.00 0.00 71 998.4
20240303233526 12 221 12.9 25.7 0.00 0.00 0.00 69 997.9
20240303232528 13 132 8.0 16.1 0.00 0.00 0.00 66 997.4
20240303231610 14 235 6.4 14.5 0.00 0.00 0.00 64 996.5
20240303230533 15 217 9.7 16.1 0.00 0.00 0.00 62 995.9
20240303225517 16 250 8.0 12.9 0.00 0.00 0.00 58 995.7
20240303224540 17 231 9.7 14.5 0.00 0.00 0.00 55 995.0
20240303223522 18 215 8.0 16.1 0.00 0.00 0.00 49 994.7
20240303222524 18 248 9.7 16.1 0.00 0.00 0.00 44 994.4
20240303221527 20 258 8.0 12.9 0.00 0.00 0.00 41 993.7
20240303220531 20 223 9.7 19.3 0.00 0.00 0.00 40 993.6
20240303215526 21 289 11.3 20.9 0.00 0.00 0.00 40 993.0
20240303214516 20 228 9.7 14.5 0.00 0.00 0.00 55 992.4
20240303213558 20 165 9.7 14.5 0.00 0.00 0.00 62 992.4
20240303212535 20 157 6.4 9.7 0.00 0.00 0.00 62 992.4
20240303211543 20 161 9.7 14.5 0.00 0.00 0.00 62 992.3
20240303210526 20 148 11.3 17.7 0.00 0.00 0.00 62 992.4
20240303205549 20 187 11.3 17.7 0.00 0.00 0.00 63 992.6
20240303204531 20 158 12.9 20.9 0.00 0.00 0.00 63 992.8
20240303203515 20 155 9.7 14.5 0.00 0.00 0.00 63 992.9
20240303202518 20 162 11.3 17.7 0.00 0.00 0.00 63 993.0
20240303201520 19 176 14.5 22.5 0.00 0.00 0.00 64 993.3
20240303200543 19 166 11.3 16.1 0.00 0.00 0.00 65 993.5
20240303195525 18 178 11.3 17.7 0.00 0.00 0.00 66 993.8
20240303194528 18 172 9.7 17.7 0.00 0.00 0.00 68 994.0
20240303193530 17 175 11.3 17.7 0.00 0.00 0.00 69 994.3
20240303192553 17 147 9.7 14.5 0.00 0.00 0.00 70 994.5
20240303191528 17 163 14.5 20.9 0.00 0.00 0.00 71 994.7
20240303190517 16 160 14.5 24.1 0.00 0.00 0.00 72 995.0
20240303185540 16 172 9.7 12.9 0.00 0.00 0.00 72 995.1
20240303184516 16 154 11.3 14.5 0.00 0.00 0.00 72 995.3
20240303183544 16 159 11.3 17.7 0.00 0.00 0.00 72 995.4
20240303182547 16 155 9.7 14.5 0.00 0.00 0.00 72 995.5
20240303181529 16 141 12.9 17.7 0.00 0.00 0.00 72 995.7
20240303180531 16 147 12.9 20.9 0.00 0.00 0.00 71 996.0
20240303175516 16 157 14.5 19.3 0.00 0.00 0.00 73 996.2
20240303174518 15 166 11.3 16.1 0.00 0.00 0.00 73 996.2
20240303173541 16 158 14.5 27.4 0.00 0.00 0.00 72 996.4
20240303172523 15 184 12.9 17.7 0.00 0.00 0.00 75 996.7
20240303171525 15 183 14.5 24.1 0.00 0.00 0.00 74 997.1
20240303170548 15 158 12.9 20.9 0.00 0.00 0.00 73 997.3
20240303165530 15 172 14.5 29.0 0.00 0.00 0.00 74 997.7
20240303164533 15 156 11.3 17.7 0.00 0.00 0.00 74 997.9
20240303163537 14 156 16.1 25.7 0.00 0.00 0.00 75 998.1
20240303162520 13 149 11.3 19.3 0.00 0.00 0.00 76 998.2
20240303161522 13 156 16.1 20.9 0.00 0.00 0.00 76 998.2
20240303160519 13 147 9.7 16.1 0.00 0.00 0.00 76 998.3
20240303155517 13 171 11.3 17.7 0.00 0.00 0.00 77 998.5
20240303154530 12 164 11.3 16.1 0.00 0.00 0.00 78 998.6
20240303153532 12 157 11.3 20.9 0.00 0.00 0.00 80 998.8
20240303152517 12 184 12.9 20.9 0.00 0.00 0.00 80 998.9
20240303151519 11 163 12.9 19.3 0.00 0.00 0.00 80 999.0
20240303150521 11 163 9.7 17.7 0.00 0.00 0.00 82 999.2
20240303145529 11 138 12.9 17.7 0.00 0.00 0.00 82 999.4
20240303144526 10 154 9.7 17.7 0.00 0.00 0.00 84 999.7
20240303143529 9 157 11.3 17.7 0.00 0.00 0.00 85 999.8
20240303142531 8 176 6.4 14.5 0.00 0.00 0.00 86 999.8
20240303141516 8 149 6.4 14.5 0.00 0.00 0.00 88 1000.0
20240303140604 7 149 8.0 14.5 0.00 0.00 0.00 88 1000.3
20240303135521 7 148 6.4 16.1 0.00 0.00 0.00 89 1000.5
20240303134623 7 141 4.8 9.7 0.00 0.00 0.00 89 1000.6
20240303133525 7 93 4.8 9.7 0.00 0.00 0.00 89 1000.7
20240303132528 7 145 6.4 9.7 0.00 0.00 0.00 89 1000.8
20240303131538 6 149 6.4 11.3 0.00 0.00 0.00 89 1001.0
20240303130533 6 146 4.8 8.0 0.00 0.00 0.00 89 1001.2
20240303125517 7 147 4.8 8.0 0.00 0.00 0.00 89 1001.3
20240303124520 7 151 3.2 6.4 0.00 0.00 0.00 88 1001.3
20240303123522 7 185 4.8 8.0 0.00 0.00 0.00 87 1001.5
20240303122525 7 154 6.4 11.3 0.00 0.00 0.00 86 1001.6
20240303121528 7 162 6.4 9.7 0.00 0.00 0.00 86 1001.7
20240303120530 7 140 6.4 9.7 0.00 0.00 0.00 85 1001.9
20240303115532 7 142 8.0 12.9 0.00 0.00 0.00 85 1002.0
20240303114516 8 167 8.0 12.9 0.00 0.00 0.00 85 1002.2
20240303113519 8 173 8.0 12.9 0.00 0.00 0.00 84 1002.3
20240303112542 7 154 8.0 11.3 0.00 0.00 0.00 84 1002.5
20240303111544 7 156 8.0 14.5 0.00 0.00 0.00 84 1002.5
20240303110526 7 170 8.0 11.3 0.00 0.00 0.00 84 1002.6
20240303105548 7 165 6.4 11.3 0.00 0.00 0.00 83 1002.7
20240303104525 8 163 6.4 9.7 0.00 0.00 0.00 83 1002.9
20240303103515 7 172 8.0 11.3 0.00 0.00 0.00 83 1003.0
20240303102518 8 160 6.4 12.9 0.00 0.00 0.00 82 1003.0
20240303101520 8 138 8.0 14.5 0.00 0.00 0.00 82 1003.0
20240303100523 8 165 8.0 14.5 0.00 0.00 0.00 82 1003.1
20240303095526 8 164 8.0 14.5 0.00 0.00 0.00 81 1003.2
20240303094529 8 156 8.0 11.3 0.00 0.00 0.00 81 1003.5
20240303093550 8 147 8.0 16.1 0.00 0.00 0.00 81 1003.6
20240303092532 7 174 6.4 11.3 0.00 0.00 0.00 81 1003.6
20240303091517 7 148 6.4 9.7 0.00 0.00 0.00 80 1003.9
20240303090519 8 168 4.8 9.7 0.00 0.00 0.00 80 1004.1
20240303085522 8 145 4.8 6.4 0.00 0.00 0.00 79 1004.4
20240303084524 8 149 6.4 9.7 0.00 0.00 0.00 79 1004.5
20240303083526 8 158 6.4 8.0 0.00 0.00 0.00 78 1004.6
20240303082549 8 159 4.8 8.0 0.00 0.00 0.00 78 1004.6
20240303081531 8 152 6.4 8.0 0.00 0.00 0.00 77 1004.9
20240303080515 8 166 6.4 9.7 0.00 0.00 0.00 77 1005.1
20240303075518 8 143 6.4 8.0 0.00 0.00 0.00 77 1005.3
20240303074520 8 161 8.0 11.3 0.00 0.00 0.00 77 1005.4
20240303073517 8 165 4.8 8.0 0.00 0.00 0.00 77 1005.4
20240303072525 8 164 6.4 11.3 0.00 0.00 0.00 77 1005.5
20240303071548 8 155 3.2 6.4 0.00 0.00 0.00 76 1005.6
20240303070530 8 170 4.8 9.7 0.00 0.00 0.00 75 1005.6
20240303065533 9 156 6.4 12.9 0.00 0.00 0.00 75 1005.8
20240303064517 9 160 6.4 9.7 0.00 0.00 0.00 74 1005.9
20240303063520 9 155 4.8 6.4 0.00 0.00 0.00 74 1006.0
20240303062543 9 137 4.8 11.3 0.00 0.00 0.00 74 1006.1
20240303061525 9 163 4.8 9.7 0.00 0.00 0.00 73 1006.1
20240303060548 10 184 3.2 6.4 0.00 0.00 0.00 73 1006.2
20240303055529 10 166 4.8 11.3 0.00 0.00 0.00 72 1006.3
20240303054531 10 146 6.4 8.0 0.00 0.00 0.00 72 1006.4
20240303053516 10 149 6.4 16.1 0.00 0.00 0.00 71 1006.4
20240303052519 10 169 4.8 9.7 0.00 0.00 0.00 71 1006.4
20240303051521 10 231 6.4 9.7 0.00 0.00 0.00 71 1006.6
20240303050523 10 156 4.8 8.0 0.00 0.00 0.00 70 1006.8
20240303045520 11 176 6.4 9.7 0.00 0.00 0.00 70 1006.9
20240303044517 11 134 6.4 9.7 0.00 0.00 0.00 70 1007.0
20240303043551 11 177 8.0 11.3 0.00 0.00 0.00 70 1007.1
20240303042520 11 166 8.0 11.3 0.00 0.00 0.00 70 1007.2
20240303041519 11 163 8.0 14.5 0.00 0.00 0.00 70 1007.3
20240303040520 11 168 6.4 9.7 0.00 0.00 0.00 71 1007.5
20240303035543 10 160 6.4 11.3 0.00 0.00 0.00 72 1007.5